Time;durP1;ratioP1;P1;durP2;ratioP2;P2;SDS_P1;SDS_P2;PMS_P1;PMS_P2;Temp;Humidity;BMP_temperature;BMP_pressure;BME280_temperature;BME280_humidity;BME280_pressure;Samples;Min_cycle;Max_cycle;Signal;HPM_P1;HPM_P2
2023/12/24 00:01:35;;;;;;;4.70;1.20;;;10.80;99.90;;;;;;5138064;27;20446;-66
2023/12/24 00:04:03;;;;;;;3.93;1.57;;;10.80;99.90;;;;;;5137966;27;20931;-66
2023/12/24 00:06:30;;;;;;;8.50;2.27;;;10.80;99.90;;;;;;5138885;27;20438;-66
2023/12/24 00:08:57;;;;;;;6.23;1.97;;;10.80;99.90;;;;;;5138502;27;20488;-66
2023/12/24 00:11:24;;;;;;;3.77;1.70;;;10.80;99.90;;;;;;5138174;27;20442;-66
2023/12/24 00:13:50;;;;;;;3.10;1.60;;;10.80;99.90;;;;;;5139387;27;20438;-65
2023/12/24 00:16:17;;;;;;;7.80;1.63;;;10.90;99.90;;;;;;5138725;27;20946;-66
2023/12/24 00:18:44;;;;;;;10.40;2.03;;;10.90;99.90;;;;;;5138820;27;20437;-66
2023/12/24 00:21:14;;;;;;;3.63;2.20;;;10.90;99.90;;;;;;5138125;27;20461;-66
2023/12/24 00:23:42;;;;;;;3.90;1.30;;;10.80;99.90;;;;;;5137778;27;20438;-66
2023/12/24 00:26:09;;;;;;;10.07;1.60;;;10.80;99.90;;;;;;5139195;27;20450;-66
2023/12/24 00:28:37;;;;;;;3.47;1.33;;;10.90;99.90;;;;;;5138602;27;20485;-66
2023/12/24 00:31:06;;;;;;;2.87;1.70;;;10.90;99.90;;;;;;5138456;27;20481;-65
2023/12/24 00:33:32;;;;;;;1.00;1.00;;;10.90;99.90;;;;;;5139393;27;20472;-66
2023/12/24 00:35:59;;;;;;;3.60;1.90;;;10.80;99.90;;;;;;5139196;27;20438;-66
2023/12/24 00:38:27;;;;;;;4.13;1.33;;;10.80;99.90;;;;;;5139256;27;20434;-66
2023/12/24 00:40:54;;;;;;;5.13;2.20;;;10.70;99.90;;;;;;5139325;27;20872;-66
2023/12/24 00:43:21;;;;;;;4.53;1.07;;;10.70;99.90;;;;;;5138920;27;20823;-66
2023/12/24 00:45:48;;;;;;;1.43;1.10;;;10.70;99.90;;;;;;5138827;27;20966;-65
2023/12/24 00:48:14;;;;;;;3.77;1.30;;;10.70;99.90;;;;;;5138448;27;20504;-65
2023/12/24 00:50:41;;;;;;;5.03;1.00;;;10.60;99.90;;;;;;5138746;27;20831;-65
2023/12/24 00:53:08;;;;;;;1.37;1.20;;;10.60;99.90;;;;;;5138773;27;20446;-66
2023/12/24 00:55:37;;;;;;;4.90;1.53;;;10.60;99.90;;;;;;5139250;27;20446;-65
2023/12/24 00:58:03;;;;;;;3.30;1.27;;;10.60;99.90;;;;;;5138223;27;20442;-65
2023/12/24 01:00:30;;;;;;;2.70;1.60;;;10.60;99.90;;;;;;5136998;27;20462;-65
2023/12/24 01:02:57;;;;;;;2.30;1.20;;;10.50;99.90;;;;;;5138728;27;20546;-66
2023/12/24 01:05:24;;;;;;;2.50;1.17;;;10.50;99.90;;;;;;5120477;27;20438;-66
2023/12/24 01:07:51;;;;;;;5.50;1.43;;;10.60;99.90;;;;;;5120450;27;20453;-66
2023/12/24 01:10:17;;;;;;;3.73;1.40;;;10.60;99.90;;;;;;5139378;27;20542;-66
2023/12/24 01:12:46;;;;;;;2.63;0.80;;;10.60;99.90;;;;;;5139217;27;20441;-65
2023/12/24 01:15:13;;;;;;;4.73;1.60;;;10.60;99.90;;;;;;5138523;27;20965;-66
2023/12/24 01:17:39;;;;;;;2.37;1.27;;;10.70;99.90;;;;;;5138925;27;20445;-65
2023/12/24 01:20:13;;;;;;;2.70;1.23;;;10.70;99.90;;;;;;5138662;27;20457;-66
2023/12/24 01:22:40;;;;;;;3.10;0.90;;;10.70;99.90;;;;;;5138866;27;20454;-66
2023/12/24 01:25:08;;;;;;;2.00;1.10;;;10.70;99.90;;;;;;5138525;27;20438;-65
2023/12/24 01:27:35;;;;;;;2.70;1.23;;;10.70;99.90;;;;;;5139007;27;20442;-66
2023/12/24 01:30:04;;;;;;;7.37;1.23;;;10.70;99.90;;;;;;5138610;27;20485;-66
2023/12/24 01:32:31;;;;;;;4.70;1.40;;;10.70;99.90;;;;;;5138845;27;20434;-66
2023/12/24 01:34:58;;;;;;;7.80;1.50;;;10.70;99.90;;;;;;5137832;27;20438;-65
2023/12/24 01:37:24;;;;;;;2.33;1.20;;;10.80;99.90;;;;;;5138744;27;20442;-65
2023/12/24 01:39:51;;;;;;;1.47;1.10;;;10.80;99.90;;;;;;5142119;27;20473;-65
2023/12/24 01:42:18;;;;;;;2.57;1.30;;;10.70;99.90;;;;;;5153144;27;20445;-65
2023/12/24 01:44:45;;;;;;;3.40;1.20;;;10.70;99.90;;;;;;5140903;27;20453;-65
2023/12/24 01:47:13;;;;;;;1.60;1.20;;;10.60;99.90;;;;;;5139349;27;20442;-66
2023/12/24 01:49:41;;;;;;;2.97;1.10;;;10.60;99.90;;;;;;5137266;27;20489;-65
2023/12/24 01:52:08;;;;;;;3.80;1.17;;;10.60;99.90;;;;;;5137700;27;20446;-66
2023/12/24 01:54:36;;;;;;;1.57;1.17;;;10.70;99.90;;;;;;5136788;27;20489;-66
2023/12/24 01:57:03;;;;;;;1.60;0.90;;;10.60;99.90;;;;;;5140966;27;20427;-66
2023/12/24 01:59:32;;;;;;;3.70;1.03;;;10.60;99.90;;;;;;5141976;27;20503;-66
2023/12/24 02:02:00;;;;;;;6.83;1.10;;;10.60;99.90;;;;;;5140145;27;20442;-66
2023/12/24 02:04:28;;;;;;;2.33;0.83;;;10.70;99.90;;;;;;5137784;27;20438;-66
2023/12/24 02:06:55;;;;;;;1.30;0.83;;;10.70;99.90;;;;;;5119468;28;20482;-66
2023/12/24 02:09:22;;;;;;;5.33;1.10;;;10.70;99.90;;;;;;5138255;28;20490;-66
2023/12/24 02:11:48;;;;;;;3.53;0.83;;;10.70;99.90;;;;;;5138381;27;20449;-66
2023/12/24 02:14:15;;;;;;;3.50;0.70;;;10.80;99.90;;;;;;5120067;28;20867;-66
2023/12/24 02:16:45;;;;;;;2.77;1.07;;;10.70;99.90;;;;;;5138718;28;20449;-66
2023/12/24 02:19:20;;;;;;;2.77;1.07;;;10.70;99.90;;;;;;5138297;28;20994;-66
2023/12/24 02:21:48;;;;;;;2.87;0.70;;;10.60;99.90;;;;;;5139123;28;20471;-66
2023/12/24 02:24:16;;;;;;;0.60;0.60;;;10.60;99.90;;;;;;5138522;28;20450;-65
2023/12/24 02:26:49;;;;;;;1.80;0.80;;;10.50;99.90;;;;;;5119952;28;20471;-66
2023/12/24 02:29:26;;;;;;;1.50;0.60;;;10.50;99.90;;;;;;5138314;28;20516;-66
2023/12/24 02:31:58;;;;;;;0.57;0.57;;;10.50;99.90;;;;;;5138297;28;20441;-66
2023/12/24 02:34:27;;;;;;;0.67;0.67;;;10.50;99.90;;;;;;5138033;28;20435;-65
2023/12/24 02:36:56;;;;;;;0.73;0.73;;;10.50;99.90;;;;;;5137586;28;20442;-65
2023/12/24 02:39:23;;;;;;;0.63;0.63;;;10.40;99.90;;;;;;5137791;28;20827;-64
2023/12/24 02:41:50;;;;;;;0.70;0.60;;;10.40;99.90;;;;;;5139151;28;20475;-64
2023/12/24 02:44:16;;;;;;;0.83;0.77;;;10.40;99.90;;;;;;5139547;28;20441;-64
2023/12/24 02:46:43;;;;;;;0.50;0.50;;;10.40;99.90;;;;;;5138628;28;20438;-64
2023/12/24 02:49:10;;;;;;;0.60;0.60;;;10.30;99.90;;;;;;5121262;28;20477;-64
2023/12/24 02:51:37;;;;;;;1.03;0.60;;;10.30;99.90;;;;;;5139553;28;20951;-64
2023/12/24 02:54:05;;;;;;;0.90;0.70;;;10.30;99.90;;;;;;5139504;28;20448;-64
2023/12/24 02:56:36;;;;;;;0.53;0.53;;;10.20;99.90;;;;;;5138660;28;20445;-64
2023/12/24 02:59:03;;;;;;;4.10;0.90;;;10.20;99.90;;;;;;5138973;28;20854;-64
2023/12/24 03:01:29;;;;;;;0.70;0.60;;;10.20;99.90;;;;;;5139226;28;20441;-65
2023/12/24 03:03:56;;;;;;;1.20;0.80;;;10.20;99.90;;;;;;5139200;28;20453;-64
2023/12/24 03:06:23;;;;;;;0.77;0.77;;;10.20;99.90;;;;;;5139148;28;20457;-65
2023/12/24 03:08:50;;;;;;;1.07;0.70;;;10.30;99.90;;;;;;5139581;28;20497;-65
2023/12/24 03:11:18;;;;;;;0.70;0.70;;;10.30;99.90;;;;;;5139158;28;20789;-64
2023/12/24 03:13:45;;;;;;;0.80;0.70;;;10.30;99.90;;;;;;5139385;28;20442;-64
2023/12/24 03:16:11;;;;;;;1.83;0.87;;;10.30;99.90;;;;;;5139911;28;20449;-65
2023/12/24 03:18:38;;;;;;;1.70;0.80;;;10.30;99.90;;;;;;5139349;28;20498;-65
2023/12/24 03:21:05;;;;;;;0.90;0.90;;;10.30;99.90;;;;;;5139429;28;20474;-65
2023/12/24 03:23:32;;;;;;;2.43;1.00;;;10.40;99.90;;;;;;5140118;27;20441;-64
2023/12/24 03:25:58;;;;;;;1.07;0.97;;;10.40;99.90;;;;;;5143545;27;20445;-64
2023/12/24 03:28:27;;;;;;;2.33;1.77;;;10.40;99.90;;;;;;5143572;27;20445;-64
2023/12/24 03:30:53;;;;;;;1.43;1.30;;;10.30;99.90;;;;;;5144065;27;20481;-65
2023/12/24 03:33:20;;;;;;;1.53;1.20;;;10.30;99.90;;;;;;5143813;27;20440;-64
2023/12/24 03:35:47;;;;;;;1.20;1.10;;;10.40;99.90;;;;;;5144217;27;20445;-64
2023/12/24 03:38:13;;;;;;;3.13;1.67;;;10.30;99.90;;;;;;5143223;27;20441;-64
2023/12/24 03:40:40;;;;;;;2.10;1.60;;;10.30;99.90;;;;;;5143549;27;20465;-65
2023/12/24 03:43:07;;;;;;;1.83;1.33;;;10.40;99.90;;;;;;5143291;27;20467;-65
2023/12/24 03:45:35;;;;;;;2.10;1.53;;;10.40;99.90;;;;;;5143942;27;20452;-65
2023/12/24 03:48:04;;;;;;;2.57;1.70;;;10.40;99.90;;;;;;5143415;27;20442;-64
2023/12/24 03:50:31;;;;;;;1.73;1.30;;;10.50;99.90;;;;;;5142868;27;20497;-65
2023/12/24 03:52:58;;;;;;;1.67;1.57;;;10.40;99.90;;;;;;5142513;27;20977;-64
2023/12/24 03:55:24;;;;;;;1.27;1.27;;;10.40;99.90;;;;;;5139872;27;20969;-65
2023/12/24 03:57:51;;;;;;;1.37;1.37;;;10.40;99.90;;;;;;5145437;27;20441;-64
2023/12/24 04:00:18;;;;;;;1.70;1.60;;;10.40;99.90;;;;;;5146259;27;20466;-65
2023/12/24 04:02:46;;;;;;;1.50;1.40;;;10.40;99.90;;;;;;5144341;27;20442;-65
2023/12/24 04:05:14;;;;;;;2.60;1.60;;;10.40;99.90;;;;;;5144839;27;20499;-65
2023/12/24 04:07:41;;;;;;;1.53;1.10;;;10.50;99.90;;;;;;5143771;27;20438;-64
2023/12/24 04:10:08;;;;;;;1.20;1.20;;;10.50;99.90;;;;;;5143383;27;20622;-65
2023/12/24 04:12:35;;;;;;;1.30;1.20;;;10.40;99.90;;;;;;5143128;27;20453;-64
2023/12/24 04:15:02;;;;;;;1.37;1.10;;;10.40;99.90;;;;;;5143529;27;20431;-64
2023/12/24 04:17:29;;;;;;;1.13;1.13;;;10.40;99.90;;;;;;5126147;27;20437;-65
2023/12/24 04:19:57;;;;;;;1.57;1.10;;;10.40;99.90;;;;;;5143720;27;20458;-65
2023/12/24 04:22:23;;;;;;;3.13;1.13;;;10.50;99.90;;;;;;5144006;27;20442;-65
2023/12/24 04:24:50;;;;;;;1.30;1.30;;;10.50;99.90;;;;;;5143041;27;20446;-65
2023/12/24 04:27:17;;;;;;;1.40;1.30;;;10.50;99.90;;;;;;5143170;27;20438;-65
2023/12/24 04:29:44;;;;;;;1.20;1.20;;;10.50;99.90;;;;;;5142893;27;20939;-64
2023/12/24 04:32:12;;;;;;;1.10;1.10;;;10.50;99.90;;;;;;5143288;27;20461;-65
2023/12/24 04:34:39;;;;;;;1.40;1.30;;;10.50;99.90;;;;;;5142172;27;20908;-64
2023/12/24 04:37:07;;;;;;;1.20;1.10;;;10.40;99.90;;;;;;5141047;27;20457;-64
2023/12/24 04:39:33;;;;;;;1.00;1.00;;;10.50;99.90;;;;;;5140680;27;20465;-65
2023/12/24 04:42:00;;;;;;;0.80;0.80;;;10.50;99.90;;;;;;5141088;27;20495;-64
2023/12/24 04:44:27;;;;;;;0.83;0.83;;;10.40;99.90;;;;;;5123695;27;20446;-64
2023/12/24 04:46:54;;;;;;;0.53;0.53;;;10.50;99.90;;;;;;5141668;27;20822;-64
2023/12/24 04:49:20;;;;;;;1.50;0.93;;;10.50;99.90;;;;;;5141615;27;20481;-64
2023/12/24 04:51:47;;;;;;;2.07;0.60;;;10.50;99.90;;;;;;5142713;27;20434;-64
2023/12/24 04:54:15;;;;;;;0.60;0.43;;;10.50;99.90;;;;;;5142620;27;20457;-65
2023/12/24 04:56:42;;;;;;;1.60;0.60;;;10.50;99.90;;;;;;5142766;27;20451;-64
2023/12/24 04:59:08;;;;;;;1.27;0.70;;;10.50;99.90;;;;;;5143153;27;20453;-64
2023/12/24 05:01:35;;;;;;;1.67;0.70;;;10.50;99.90;;;;;;5142119;27;20437;-64
2023/12/24 05:04:03;;;;;;;0.60;0.50;;;10.50;99.90;;;;;;5142092;27;20463;-64
2023/12/24 05:06:29;;;;;;;0.73;0.70;;;10.50;99.90;;;;;;5141583;27;20464;-65
2023/12/24 05:08:56;;;;;;;0.40;0.40;;;10.50;99.90;;;;;;5141810;27;20446;-64
2023/12/24 05:11:24;;;;;;;0.60;0.60;;;10.50;99.90;;;;;;5142111;27;20478;-65
2023/12/24 05:13:51;;;;;;;0.70;0.70;;;10.50;99.90;;;;;;5142666;27;20446;-64
2023/12/24 05:16:17;;;;;;;1.27;0.90;;;10.50;99.90;;;;;;5123778;27;20438;-64
2023/12/24 05:18:46;;;;;;;1.20;0.70;;;10.50;99.90;;;;;;5142449;27;20445;-64
2023/12/24 05:21:13;;;;;;;0.70;0.70;;;10.50;99.90;;;;;;5142573;27;20461;-64
2023/12/24 05:23:41;;;;;;;0.50;0.50;;;10.40;99.90;;;;;;5142519;27;20456;-64
2023/12/24 05:26:08;;;;;;;0.50;0.50;;;10.40;99.90;;;;;;5142248;27;20454;-64
2023/12/24 05:28:36;;;;;;;1.60;0.80;;;10.40;99.90;;;;;;5142443;27;20438;-64
2023/12/24 05:31:03;;;;;;;0.67;0.50;;;10.40;99.90;;;;;;5140391;27;20486;-64
2023/12/24 05:33:29;;;;;;;0.70;0.70;;;10.40;99.90;;;;;;5141567;27;20438;-64
2023/12/24 05:35:56;;;;;;;1.33;0.90;;;10.40;99.90;;;;;;5140980;27;20852;-64
2023/12/24 05:38:23;;;;;;;0.80;0.80;;;10.30;99.90;;;;;;5140513;27;20449;-64
2023/12/24 05:40:50;;;;;;;1.27;0.77;;;10.40;99.90;;;;;;5140087;27;20479;-64
2023/12/24 05:43:17;;;;;;;0.70;0.70;;;10.40;99.90;;;;;;5138758;27;20446;-64
2023/12/24 05:45:46;;;;;;;1.00;0.80;;;10.40;99.90;;;;;;5138935;27;20441;-64
2023/12/24 05:48:12;;;;;;;0.70;0.70;;;10.40;99.90;;;;;;5137308;27;20480;-64
2023/12/24 05:50:40;;;;;;;1.17;1.03;;;10.40;99.90;;;;;;5138587;27;20852;-64
2023/12/24 05:53:07;;;;;;;0.60;0.60;;;10.40;99.90;;;;;;5138370;27;20942;-65
2023/12/24 05:55:34;;;;;;;1.90;0.93;;;10.40;99.90;;;;;;5138905;27;20457;-64
2023/12/24 05:58:00;;;;;;;0.90;0.47;;;10.40;99.90;;;;;;5138335;27;20486;-64
2023/12/24 06:00:27;;;;;;;0.63;0.63;;;10.40;99.90;;;;;;5140298;27;20453;-64
2023/12/24 06:02:54;;;;;;;0.70;0.70;;;10.40;99.90;;;;;;5122687;27;20466;-65
2023/12/24 06:05:21;;;;;;;1.23;0.70;;;10.40;99.90;;;;;;5141264;27;20442;-65
2023/12/24 06:07:48;;;;;;;0.80;0.70;;;10.40;99.90;;;;;;5139901;27;20499;-65
2023/12/24 06:10:15;;;;;;;0.60;0.53;;;10.50;99.90;;;;;;5140467;28;20482;-65
2023/12/24 06:12:43;;;;;;;0.80;0.80;;;10.40;99.90;;;;;;5140295;28;20472;-65
2023/12/24 06:15:10;;;;;;;0.80;0.80;;;10.50;99.90;;;;;;5142347;28;20438;-64
2023/12/24 06:17:37;;;;;;;0.80;0.80;;;10.50;99.90;;;;;;5137295;28;20434;-65
2023/12/24 06:20:07;;;;;;;0.80;0.73;;;10.50;99.90;;;;;;5136728;28;20453;-65
2023/12/24 06:22:33;;;;;;;0.70;0.70;;;10.50;99.90;;;;;;5136365;28;20441;-65
2023/12/24 06:25:00;;;;;;;0.93;0.60;;;10.50;99.90;;;;;;5136856;28;20441;-65
2023/12/24 06:27:28;;;;;;;1.23;0.80;;;10.50;99.90;;;;;;5137245;28;20438;-65
2023/12/24 06:29:55;;;;;;;0.50;0.50;;;10.50;99.90;;;;;;5118970;28;20480;-65
2023/12/24 06:32:22;;;;;;;0.80;0.60;;;10.50;99.90;;;;;;5137462;28;20461;-65
2023/12/24 06:34:50;;;;;;;1.47;0.80;;;10.60;99.90;;;;;;5137845;28;20448;-65
2023/12/24 06:37:19;;;;;;;0.50;0.50;;;10.60;99.90;;;;;;5138296;28;20445;-65
2023/12/24 06:39:45;;;;;;;0.70;0.70;;;10.60;99.90;;;;;;5137300;28;20466;-65
2023/12/24 06:42:12;;;;;;;0.77;0.77;;;10.70;99.90;;;;;;5137794;28;20446;-65
2023/12/24 06:44:42;;;;;;;0.60;0.60;;;10.60;99.90;;;;;;5138113;28;20931;-65
2023/12/24 06:47:08;;;;;;;0.50;0.50;;;10.70;99.90;;;;;;5138499;28;20437;-65
2023/12/24 06:49:35;;;;;;;1.00;0.50;;;10.60;99.90;;;;;;5138723;28;20462;-65
2023/12/24 06:52:02;;;;;;;1.53;0.63;;;10.60;99.90;;;;;;5137881;28;21021;-65
2023/12/24 06:54:30;;;;;;;0.60;0.60;;;10.70;99.90;;;;;;5137978;28;20461;-65
2023/12/24 06:56:57;;;;;;;0.53;0.53;;;10.70;99.90;;;;;;5138304;28;20509;-64
2023/12/24 06:59:24;;;;;;;0.63;0.47;;;10.70;99.90;;;;;;5141516;27;20468;-65
2023/12/24 07:01:51;;;;;;;0.80;0.60;;;10.70;99.90;;;;;;5142014;27;20434;-65
2023/12/24 07:04:18;;;;;;;0.60;0.60;;;10.70;99.90;;;;;;5141900;27;20441;-65
2023/12/24 07:06:45;;;;;;;2.07;0.50;;;10.70;99.90;;;;;;5142110;27;20445;-65
2023/12/24 07:09:12;;;;;;;0.97;0.70;;;10.70;99.90;;;;;;5142154;27;20462;-65
2023/12/24 07:11:40;;;;;;;0.50;0.50;;;10.80;99.90;;;;;;5142226;27;20474;-65
2023/12/24 07:14:06;;;;;;;0.73;0.73;;;10.70;99.90;;;;;;5141907;27;20448;-65
2023/12/24 07:16:33;;;;;;;1.30;0.90;;;10.70;99.90;;;;;;5140894;27;20446;-65
2023/12/24 07:19:02;;;;;;;2.40;1.00;;;10.80;99.90;;;;;;5138833;27;20451;-65
2023/12/24 07:21:29;;;;;;;1.20;0.80;;;10.80;99.90;;;;;;5138921;27;20927;-65
2023/12/24 07:23:56;;;;;;;0.80;0.80;;;10.80;99.90;;;;;;5138850;27;20442;-65
2023/12/24 07:26:22;;;;;;;0.80;0.80;;;10.80;99.90;;;;;;5139355;27;20812;-66
2023/12/24 07:28:50;;;;;;;0.77;0.77;;;10.80;99.90;;;;;;5139316;27;20438;-65
2023/12/24 07:31:17;;;;;;;0.70;0.70;;;10.90;99.90;;;;;;5139285;27;20481;-65
2023/12/24 07:33:44;;;;;;;0.73;0.73;;;10.90;99.90;;;;;;5139351;27;20442;-65
2023/12/24 07:36:10;;;;;;;0.73;0.73;;;10.80;99.90;;;;;;5139781;27;20434;-65
2023/12/24 07:38:37;;;;;;;0.80;0.80;;;10.80;99.90;;;;;;5140164;27;20456;-65
2023/12/24 07:41:04;;;;;;;1.07;0.77;;;10.80;99.90;;;;;;5139970;27;20457;-65
2023/12/24 07:43:31;;;;;;;0.80;0.70;;;10.80;99.90;;;;;;5139998;27;20935;-65
2023/12/24 07:45:59;;;;;;;0.80;0.80;;;10.80;99.90;;;;;;5140176;27;20481;-65
2023/12/24 07:48:26;;;;;;;0.73;0.73;;;10.80;99.90;;;;;;5140786;27;20453;-65
2023/12/24 07:50:52;;;;;;;1.10;1.10;;;10.80;99.90;;;;;;5120942;27;20477;-65
2023/12/24 07:53:19;;;;;;;1.37;0.77;;;10.80;99.90;;;;;;5139224;27;20438;-65
2023/12/24 07:55:47;;;;;;;0.80;0.80;;;10.80;99.90;;;;;;5121128;27;20460;-65
2023/12/24 07:58:14;;;;;;;0.97;0.90;;;10.80;99.90;;;;;;5140122;27;20450;-65
2023/12/24 08:00:41;;;;;;;2.10;0.70;;;10.80;99.90;;;;;;5140509;27;20458;-65
2023/12/24 08:03:09;;;;;;;0.90;0.90;;;10.90;99.90;;;;;;5138942;27;20449;-66
2023/12/24 08:05:36;;;;;;;0.80;0.80;;;10.90;99.90;;;;;;5137645;27;20519;-66
2023/12/24 08:08:02;;;;;;;1.13;0.70;;;10.90;99.90;;;;;;5137502;27;20464;-66
2023/12/24 08:10:29;;;;;;;1.60;0.77;;;10.90;99.90;;;;;;5136839;27;20513;-65
2023/12/24 08:12:57;;;;;;;0.70;0.70;;;10.90;99.90;;;;;;5137399;27;20923;-66
2023/12/24 08:15:26;;;;;;;1.07;1.00;;;10.90;99.90;;;;;;5137599;27;20515;-66
2023/12/24 08:17:53;;;;;;;0.80;0.80;;;11.00;99.90;;;;;;5137458;27;20920;-66
2023/12/24 08:20:22;;;;;;;0.90;0.73;;;11.00;99.90;;;;;;5138110;27;20473;-66
2023/12/24 08:22:50;;;;;;;1.80;0.83;;;10.90;99.90;;;;;;5137926;27;20442;-66
2023/12/24 08:25:17;;;;;;;0.60;0.60;;;10.90;99.90;;;;;;5119313;27;20442;-66
2023/12/24 08:27:43;;;;;;;1.80;0.90;;;11.00;99.90;;;;;;5149450;27;20444;-65
2023/12/24 08:30:11;;;;;;;0.47;0.47;;;10.90;99.90;;;;;;5139198;27;20458;-66
2023/12/24 08:32:38;;;;;;;0.40;0.40;;;11.00;99.90;;;;;;5137614;27;20437;-65
2023/12/24 08:35:06;;;;;;;2.50;0.50;;;10.90;99.90;;;;;;5137822;27;20441;-65
2023/12/24 08:37:35;;;;;;;0.53;0.53;;;11.00;99.90;;;;;;5137692;27;20442;-65
2023/12/24 08:40:02;;;;;;;0.80;0.50;;;10.90;99.90;;;;;;5138332;27;20565;-65
2023/12/24 08:42:29;;;;;;;0.90;0.60;;;11.00;99.90;;;;;;5139143;27;20433;-64
2023/12/24 08:44:56;;;;;;;3.03;1.00;;;11.00;99.90;;;;;;5138999;27;20442;-64
2023/12/24 08:47:22;;;;;;;0.83;0.83;;;10.90;99.90;;;;;;5138647;27;20821;-64
2023/12/24 08:49:49;;;;;;;0.87;0.60;;;10.90;99.90;;;;;;5138643;27;20454;-64
2023/12/24 08:52:16;;;;;;;0.50;0.50;;;10.90;99.90;;;;;;5138388;27;20485;-64
2023/12/24 08:54:44;;;;;;;0.60;0.50;;;10.90;99.90;;;;;;5137989;27;20450;-65
2023/12/24 08:57:11;;;;;;;2.63;0.53;;;10.90;99.90;;;;;;5138139;27;20437;-65
2023/12/24 08:59:39;;;;;;;1.30;0.40;;;10.90;99.90;;;;;;5138625;27;20465;-65
2023/12/24 09:02:06;;;;;;;0.53;0.53;;;10.90;99.90;;;;;;5137848;27;20442;-64
2023/12/24 09:04:33;;;;;;;1.03;0.60;;;10.90;99.90;;;;;;5138470;27;20521;-64
2023/12/24 09:07:00;;;;;;;2.93;0.63;;;11.00;99.90;;;;;;5119134;27;20863;-65
2023/12/24 09:09:27;;;;;;;0.70;0.70;;;11.00;99.90;;;;;;5137661;27;20458;-65
2023/12/24 09:11:55;;;;;;;1.33;0.70;;;11.10;99.90;;;;;;5137721;27;20895;-65
2023/12/24 09:14:22;;;;;;;0.60;0.57;;;11.10;99.90;;;;;;5137691;27;20442;-65
2023/12/24 09:16:48;;;;;;;2.00;0.70;;;11.10;99.90;;;;;;5137456;27;20958;-65
2023/12/24 09:19:16;;;;;;;0.40;0.30;;;11.10;99.90;;;;;;5138361;27;20863;-64
2023/12/24 09:21:43;;;;;;;0.70;0.50;;;11.10;99.90;;;;;;5137562;27;20442;-64
2023/12/24 09:24:09;;;;;;;1.53;0.57;;;11.10;99.90;;;;;;5138640;27;20442;-64
2023/12/24 09:26:36;;;;;;;0.60;0.50;;;11.10;99.90;;;;;;5138215;27;20449;-65
2023/12/24 09:29:04;;;;;;;1.40;0.70;;;11.10;99.90;;;;;;5137911;27;20442;-65
2023/12/24 09:31:31;;;;;;;0.50;0.50;;;11.20;99.90;;;;;;5138580;27;20484;-65
2023/12/24 09:33:58;;;;;;;2.13;0.80;;;11.20;99.90;;;;;;5138417;27;20861;-65
2023/12/24 09:36:24;;;;;;;1.70;0.97;;;11.10;99.90;;;;;;5137882;27;20438;-65
2023/12/24 09:38:51;;;;;;;1.13;0.70;;;11.20;99.90;;;;;;5138083;27;20442;-65
2023/12/24 09:41:19;;;;;;;0.60;0.40;;;11.30;99.90;;;;;;5137357;27;20441;-65
2023/12/24 09:43:46;;;;;;;1.70;0.60;;;11.30;99.90;;;;;;5138386;27;20448;-65
2023/12/24 09:46:14;;;;;;;1.10;0.70;;;11.30;99.90;;;;;;5137710;27;20556;-65
2023/12/24 09:48:42;;;;;;;1.87;0.67;;;11.30;99.90;;;;;;5137953;27;20434;-65
2023/12/24 09:51:09;;;;;;;1.17;0.67;;;11.30;99.90;;;;;;5138911;27;20481;-65
2023/12/24 09:53:36;;;;;;;0.47;0.47;;;11.30;99.90;;;;;;5137687;27;20810;-65
2023/12/24 09:56:03;;;;;;;1.33;0.50;;;11.30;99.90;;;;;;5136690;27;20457;-65
2023/12/24 09:58:30;;;;;;;0.67;0.67;;;11.30;99.90;;;;;;5136432;27;20950;-65
2023/12/24 10:00:57;;;;;;;0.93;0.60;;;11.40;99.90;;;;;;5137652;27;20464;-65
2023/12/24 10:03:26;;;;;;;3.20;0.83;;;11.40;99.90;;;;;;5137622;27;20442;-65
2023/12/24 10:05:58;;;;;;;1.17;0.63;;;11.40;99.90;;;;;;5138372;27;20442;-65
2023/12/24 10:08:24;;;;;;;0.70;0.60;;;11.40;99.90;;;;;;5137431;27;20434;-65
2023/12/24 10:10:51;;;;;;;0.77;0.77;;;11.40;99.90;;;;;;5137616;27;20472;-66
2023/12/24 10:13:20;;;;;;;1.03;1.03;;;11.40;99.90;;;;;;5137318;28;20540;-65
2023/12/24 10:15:47;;;;;;;1.23;0.80;;;11.40;99.90;;;;;;5119587;28;20442;-65
2023/12/24 10:18:18;;;;;;;1.17;0.73;;;11.40;99.90;;;;;;5137887;28;20530;-64
2023/12/24 10:20:46;;;;;;;1.53;1.33;;;11.30;99.90;;;;;;5138204;28;20496;-64
2023/12/24 10:23:13;;;;;;;1.37;0.90;;;11.30;99.90;;;;;;5138537;28;20442;-64
2023/12/24 10:25:42;;;;;;;0.90;0.90;;;11.30;99.90;;;;;;5138358;28;20434;-64
2023/12/24 10:28:09;;;;;;;2.20;1.00;;;11.30;99.90;;;;;;5120162;28;20441;-64
2023/12/24 10:30:36;;;;;;;1.03;1.03;;;11.30;99.90;;;;;;5138971;28;20469;-65
2023/12/24 10:33:10;;;;;;;1.23;1.13;;;11.40;99.90;;;;;;5139244;27;20477;-65
2023/12/24 10:35:37;;;;;;;1.17;1.07;;;11.40;99.90;;;;;;5141728;27;20450;-65
2023/12/24 10:38:15;;;;;;;1.67;0.90;;;11.40;99.90;;;;;;5142409;27;20438;-65
2023/12/24 10:40:41;;;;;;;1.40;1.30;;;11.30;99.90;;;;;;5146261;27;20548;-64
2023/12/24 10:43:08;;;;;;;0.80;0.80;;;11.30;99.90;;;;;;5141807;27;20444;-64
2023/12/24 10:45:35;;;;;;;1.83;1.10;;;11.40;99.90;;;;;;5139889;27;20973;-65
2023/12/24 10:48:03;;;;;;;1.33;0.90;;;11.40;99.90;;;;;;5139810;27;20553;-65
2023/12/24 10:50:29;;;;;;;0.93;0.83;;;11.30;99.90;;;;;;5140772;27;20548;-65
2023/12/24 10:52:56;;;;;;;1.50;1.40;;;11.40;99.90;;;;;;5121824;27;20481;-65
2023/12/24 10:55:25;;;;;;;1.10;1.00;;;11.40;99.90;;;;;;5140534;27;20457;-65
2023/12/24 10:58:02;;;;;;;1.80;1.00;;;11.40;99.90;;;;;;5140744;27;20449;-65
2023/12/24 11:00:29;;;;;;;1.33;1.10;;;11.50;99.90;;;;;;5141213;27;20492;-65
2023/12/24 11:02:56;;;;;;;1.90;1.73;;;11.40;99.90;;;;;;5140898;27;20434;-65
2023/12/24 11:05:50;;;;;;;2.23;1.43;;;11.40;99.90;;;;;;5141869;27;20536;-65
2023/12/24 11:08:30;;;;;;;1.80;1.10;;;11.40;99.90;;;;;;5142262;27;20441;-65
2023/12/24 11:11:01;;;;;;;0.93;0.93;;;11.50;99.90;;;;;;5141290;27;20464;-65
2023/12/24 11:13:48;;;;;;;1.50;1.40;;;11.50;99.90;;;;;;5141817;27;20839;-65
2023/12/24 11:16:42;;;;;;;1.40;1.20;;;11.50;99.90;;;;;;5141625;27;20802;-65
2023/12/24 11:19:23;;;;;;;1.70;1.10;;;11.50;99.90;;;;;;5142368;27;20418;-65
2023/12/24 11:22:07;;;;;;;2.87;1.50;;;11.50;99.90;;;;;;5141865;27;20437;-64
2023/12/24 11:24:41;;;;;;;1.53;1.20;;;11.50;99.90;;;;;;5142451;27;20444;-65
2023/12/24 11:27:09;;;;;;;1.60;1.50;;;11.50;99.90;;;;;;5142141;27;20437;-65
2023/12/24 11:29:47;;;;;;;1.97;1.47;;;11.50;99.90;;;;;;5141159;27;20461;-65
2023/12/24 11:32:36;;;;;;;3.83;2.30;;;11.50;99.90;;;;;;5141111;27;20468;-65
2023/12/24 11:35:03;;;;;;;1.63;1.53;;;11.50;99.90;;;;;;5140981;27;20438;-65
2023/12/24 11:37:33;;;;;;;2.30;1.97;;;11.60;99.90;;;;;;5123008;27;20449;-65
2023/12/24 11:40:01;;;;;;;1.63;1.53;;;11.60;99.90;;;;;;5141325;27;20458;-65
2023/12/24 11:42:46;;;;;;;3.03;1.83;;;11.60;99.90;;;;;;5140263;27;20791;-65
2023/12/24 11:45:21;;;;;;;2.70;1.53;;;11.60;99.90;;;;;;5121510;27;20452;-65
2023/12/24 11:47:48;;;;;;;2.27;1.60;;;11.70;99.90;;;;;;5141204;27;20861;-65
2023/12/24 11:50:15;;;;;;;2.57;2.33;;;11.70;99.90;;;;;;5140675;27;21003;-65
2023/12/24 11:52:44;;;;;;;2.20;2.00;;;11.70;99.90;;;;;;5141241;27;20477;-65
2023/12/24 11:55:11;;;;;;;1.37;1.30;;;11.70;99.90;;;;;;5122473;27;20449;-65
2023/12/24 11:57:39;;;;;;;1.60;1.50;;;11.80;99.90;;;;;;5141068;27;20466;-65
2023/12/24 12:00:13;;;;;;;3.57;1.90;;;11.80;99.90;;;;;;5140479;27;20466;-65
2023/12/24 12:02:41;;;;;;;2.20;1.53;;;11.80;99.90;;;;;;5142797;27;20422;-65
2023/12/24 12:05:09;;;;;;;1.67;1.37;;;11.90;99.90;;;;;;5142783;27;20446;-65
2023/12/24 12:07:36;;;;;;;1.47;1.33;;;11.90;99.90;;;;;;5143044;27;20506;-64
2023/12/24 12:10:04;;;;;;;3.27;1.40;;;11.90;99.90;;;;;;5141953;27;20480;-64
2023/12/24 12:12:31;;;;;;;1.47;1.37;;;11.90;99.90;;;;;;5141730;27;20474;-64
2023/12/24 12:14:57;;;;;;;2.10;1.20;;;11.90;99.90;;;;;;5141757;27;20910;-64
2023/12/24 12:17:25;;;;;;;2.57;1.83;;;11.90;99.90;;;;;;5140938;27;20439;-64
2023/12/24 12:19:52;;;;;;;1.00;1.00;;;11.90;99.90;;;;;;5140883;27;20466;-64
2023/12/24 12:22:19;;;;;;;1.77;1.40;;;11.80;99.90;;;;;;5141043;27;20439;-64
2023/12/24 12:24:45;;;;;;;1.50;1.40;;;11.80;99.90;;;;;;5140188;27;20438;-65
2023/12/24 12:27:12;;;;;;;1.47;1.37;;;11.80;99.90;;;;;;5139816;27;20442;-64
2023/12/24 12:29:39;;;;;;;1.40;0.83;;;11.80;99.90;;;;;;5139821;27;20462;-64
2023/12/24 12:32:07;;;;;;;1.60;1.50;;;11.80;99.90;;;;;;5140929;27;20518;-65
2023/12/24 12:34:35;;;;;;;1.57;1.47;;;11.70;99.90;;;;;;5140523;27;20442;-64
2023/12/24 12:37:03;;;;;;;1.33;1.23;;;11.70;99.90;;;;;;5139810;27;20446;-64
2023/12/24 12:39:30;;;;;;;2.00;1.33;;;11.80;99.90;;;;;;5138616;27;20462;-65
2023/12/24 12:41:58;;;;;;;1.10;1.00;;;11.80;99.90;;;;;;5138271;27;20438;-64
2023/12/24 12:44:25;;;;;;;1.30;1.20;;;11.80;99.90;;;;;;5139297;27;20438;-65
2023/12/24 12:46:52;;;;;;;0.90;0.90;;;11.80;99.90;;;;;;5138082;27;20450;-64
2023/12/24 12:49:18;;;;;;;0.97;0.97;;;11.80;99.90;;;;;;5138252;27;20497;-65
2023/12/24 12:51:49;;;;;;;1.47;1.20;;;11.80;99.90;;;;;;5138344;27;20454;-65